Alma, Wisconsin
Current Conditions -  °F | °C
As of 4:55 AM on Thursday 23 Oct 2014 (Local Time) from KONA Reporting Station
Overcast Overcast  
Wind Chill: 46°   Ceiling: 6500
Heat Index: 48°   Visibility: 10mi
Dew Point: 45°   Wind: 6mph
Humidity: 87%   Direction: 150°SSE
Pressure: 30.06"   Gusts: NA
Location:  44.32°N, 91.91°W
Report Text: KONA 230955Z AUTO 15005KT 10SM SCT046 BKN065 OVC090 09/07 A3006 RMK AO2 P0003
Loading
Personal Weather Stations






























Interactive Weather Map
Tropical Storm Tracking
New forecast layout! Learn more

10-Day Weather Forecast

Advertisements
Track Severe Weather on mobile